Time;durP1;ratioP1;P1;durP2;ratioP2;P2;SDS_P1;SDS_P2;PMS_P1;PMS_P2;Temp;Humidity;BMP_temperature;BMP_pressure;BME280_temperature;BME280_humidity;BME280_pressure;Samples;Min_cycle;Max_cycle;Signal;HPM_P1;HPM_P2
2021/04/23 00:01:20;;;;;;;21.45;17.48;;;;;;;9.08;83.39;100383.59;1732296;82;22294;-70
2021/04/23 00:04:00;;;;;;;18.60;16.05;;;;;;;9.07;83.45;100380.13;1741687;80;21150;-70
2021/04/23 00:06:36;;;;;;;22.50;16.23;;;;;;;9.13;83.49;100373.00;1744473;81;21132;-69
2021/04/23 00:09:18;;;;;;;21.48;17.07;;;;;;;9.21;83.45;100373.06;1723073;83;21194;-69
2021/04/23 00:11:58;;;;;;;18.75;15.65;;;;;;;9.26;83.31;100366.46;1746870;81;21153;-68
2021/04/23 00:14:30;;;;;;;18.40;16.07;;;;;;;9.35;83.18;100363.62;1749639;81;21264;-69
2021/04/23 00:16:58;;;;;;;21.40;16.05;;;;;;;9.40;83.04;100353.78;1754155;81;21583;-69
2021/04/23 00:19:27;;;;;;;18.15;14.98;;;;;;;9.46;82.90;100355.97;1724889;81;21178;-70
2021/04/23 00:21:56;;;;;;;19.25;15.58;;;;;;;9.52;82.70;100357.62;1753148;80;21172;-70
2021/04/23 00:24:24;;;;;;;22.52;18.52;;;;;;;9.56;82.48;100358.72;1730032;81;21654;-69
2021/04/23 00:26:53;;;;;;;26.02;20.50;;;;;;;9.53;82.28;100359.22;1747502;81;21693;-69
2021/04/23 00:29:21;;;;;;;25.95;22.25;;;;;;;9.45;82.25;100363.70;1743305;81;21146;-68
2021/04/23 00:34:41;;;;;;;26.07;21.80;;;;;;;9.40;82.31;100373.78;1746426;80;21172;-69
2021/04/23 00:37:09;;;;;;;23.92;20.72;;;;;;;9.44;82.32;100382.60;1714665;81;21148;-69
2021/04/23 00:39:37;;;;;;;22.35;17.95;;;;;;;9.45;82.33;100382.90;1739342;82;21393;-69
2021/04/23 00:42:06;;;;;;;18.70;15.90;;;;;;;9.41;82.33;100391.94;1715676;82;21177;-68
2021/04/23 00:44:34;;;;;;;19.20;17.10;;;;;;;9.38;82.39;100393.23;1722803;82;21575;-67
2021/04/23 00:47:02;;;;;;;19.65;17.25;;;;;;;9.36;82.42;100402.00;1727029;82;21094;-69
2021/04/23 00:49:30;;;;;;;19.80;16.87;;;;;;;9.36;82.45;100402.53;1714731;82;21062;-70
2021/04/23 00:52:00;;;;;;;21.50;18.27;;;;;;;9.42;82.53;100404.20;1727492;82;21974;-69
2021/04/23 00:54:29;;;;;;;21.07;17.50;;;;;;;9.49;82.54;100402.66;1727287;81;21192;-69
2021/04/23 00:56:58;;;;;;;19.70;16.73;;;;;;;9.55;82.55;100403.78;1725193;82;21584;-68
2021/04/23 00:59:26;;;;;;;18.30;14.95;;;;;;;9.59;82.48;100400.08;1722952;82;21208;-69
2021/04/23 01:01:59;;;;;;;18.07;15.63;;;;;;;9.62;82.38;100397.70;1733968;82;21207;-68
2021/04/23 01:04:30;;;;;;;16.73;14.73;;;;;;;9.63;82.18;100401.97;1732508;81;22264;-69
2021/04/23 01:06:58;;;;;;;18.20;14.93;;;;;;;9.62;81.98;100399.03;1728593;81;21169;-69
2021/04/23 01:09:28;;;;;;;14.60;12.90;;;;;;;9.59;81.90;100404.88;1726218;82;21225;-69
2021/04/23 01:11:59;;;;;;;16.55;13.65;;;;;;;9.59;81.92;100403.54;1712410;82;21125;-68
2021/04/23 01:14:27;;;;;;;17.02;15.20;;;;;;;9.56;81.81;100392.05;1724046;81;21196;-70
2021/04/23 01:16:57;;;;;;;16.52;14.05;;;;;;;9.56;81.89;100392.58;1731734;82;21196;-69
2021/04/23 01:19:27;;;;;;;16.35;14.23;;;;;;;9.60;81.97;100394.47;1715858;82;21218;-69
2021/04/23 01:21:55;;;;;;;16.12;14.18;;;;;;;9.66;82.03;100395.86;1723122;82;21166;-69
2021/04/23 01:24:25;;;;;;;17.15;14.35;;;;;;;9.69;82.01;100396.69;1733405;82;21236;-70
2021/04/23 01:26:55;;;;;;;16.45;13.98;;;;;;;9.74;82.04;100392.70;1730422;82;21129;-70
2021/04/23 01:29:25;;;;;;;16.25;13.50;;;;;;;9.79;82.01;100404.23;1734126;82;22301;-70
2021/04/23 01:31:56;;;;;;;17.30;14.07;;;;;;;9.79;81.93;100393.56;1729103;82;21081;-69
2021/04/23 01:34:41;;;;;;;16.12;14.40;;;;;;;9.73;81.81;100396.45;1723260;82;21169;-69
2021/04/23 01:37:09;;;;;;;15.30;13.68;;;;;;;9.66;81.80;100395.86;1724662;82;21082;-69
2021/04/23 01:39:39;;;;;;;16.52;13.80;;;;;;;9.60;81.82;100402.47;1709096;82;21573;-70
2021/04/23 01:42:09;;;;;;;15.75;14.05;;;;;;;9.52;81.78;100395.48;1718839;82;21203;-69
2021/04/23 01:44:38;;;;;;;16.05;14.20;;;;;;;9.42;81.93;100402.06;1725037;82;21169;-70
2021/04/23 01:47:07;;;;;;;16.85;13.93;;;;;;;9.35;82.08;100403.60;1724224;82;21095;-69
2021/04/23 01:49:36;;;;;;;17.20;14.25;;;;;;;9.28;82.27;100401.14;1719947;82;21094;-70
2021/04/23 01:52:08;;;;;;;19.35;15.32;;;;;;;9.22;82.47;100403.47;1733752;82;21062;-69
2021/04/23 01:54:37;;;;;;;18.02;15.50;;;;;;;9.18;82.71;100404.20;1723113;82;21207;-70
2021/04/23 01:57:06;;;;;;;19.23;15.93;;;;;;;9.15;82.94;100409.53;1727708;82;21161;-70
2021/04/23 01:59:36;;;;;;;16.52;14.73;;;;;;;9.09;83.19;100406.00;1728158;82;21139;-69
2021/04/23 02:02:03;;;;;;;17.98;16.07;;;;;;;9.06;83.42;100411.83;1728169;82;21085;-69
2021/04/23 02:04:33;;;;;;;18.80;16.32;;;;;;;9.01;83.61;100409.09;1738327;82;21577;-69
2021/04/23 02:07:07;;;;;;;18.75;14.90;;;;;;;8.98;83.93;100409.59;1722676;81;21302;-69
2021/04/23 02:09:35;;;;;;;;;;;;;;;8.98;84.19;100408.80;1723357;82;21157;-70
2021/04/23 02:12:05;;;;;;;17.60;14.87;;;;;;;8.94;84.40;100413.82;1719247;82;20300;-70
2021/04/23 02:14:33;;;;;;;15.35;13.30;;;;;;;8.92;84.60;100422.61;1714167;82;21482;-69
2021/04/23 02:17:01;;;;;;;16.65;14.83;;;;;;;8.90;84.91;100419.38;1725116;82;21133;-69
2021/04/23 02:19:29;;;;;;;17.32;14.63;;;;;;;8.90;85.08;100425.50;1727153;82;21296;-69
2021/04/23 02:21:57;;;;;;;17.77;15.18;;;;;;;8.90;85.22;100427.36;1726956;82;21110;-69
2021/04/23 02:24:26;;;;;;;16.45;13.72;;;;;;;8.90;85.41;100442.02;1732712;82;21184;-69
2021/04/23 02:26:54;;;;;;;17.52;14.63;;;;;;;8.91;85.57;100434.30;1718720;81;21349;-70
2021/04/23 02:29:22;;;;;;;16.48;13.93;;;;;;;8.90;85.64;100429.50;1725294;82;21600;-69
2021/04/23 02:31:53;;;;;;;16.87;14.60;;;;;;;8.89;85.73;100429.23;1719114;82;21213;-69
2021/04/23 02:34:24;;;;;;;16.05;13.55;;;;;;;8.91;85.81;100427.63;1716104;82;21089;-69
2021/04/23 02:36:53;;;;;;;18.35;14.90;;;;;;;8.91;85.92;100423.64;1723211;81;21656;-70
2021/04/23 02:39:21;;;;;;;15.93;14.10;;;;;;;8.90;85.98;100431.36;1723103;82;21165;-71
2021/04/23 02:41:52;;;;;;;18.52;15.30;;;;;;;8.91;86.15;100424.97;1714712;82;21230;-69
2021/04/23 02:44:20;;;;;;;16.50;13.95;;;;;;;8.89;86.24;100427.89;1725237;82;21205;-70
2021/04/23 02:46:48;;;;;;;16.00;14.30;;;;;;;8.90;86.33;100432.69;1726184;81;21224;-69
2021/04/23 02:49:17;;;;;;;17.32;15.38;;;;;;;8.91;86.43;100438.29;1728938;82;21645;-70
2021/04/23 02:51:47;;;;;;;16.93;14.47;;;;;;;8.90;86.48;100442.02;1729460;82;21220;-69
2021/04/23 02:54:18;;;;;;;16.80;14.00;;;;;;;8.90;86.66;100452.67;1713395;82;22328;-69
2021/04/23 02:56:47;;;;;;;16.32;14.38;;;;;;;8.91;86.77;100457.73;1726688;81;21399;-69
2021/04/23 02:59:16;;;;;;;16.20;14.33;;;;;;;8.93;86.82;100462.83;1731739;82;21609;-68
2021/04/23 03:01:48;;;;;;;14.05;10.05;;;;;;;8.95;86.73;100479.38;1718773;82;21087;-70
2021/04/23 03:04:17;;;;;;;10.53;8.83;;;;;;;8.93;85.39;100486.80;1724328;82;21240;-69
2021/04/23 03:06:45;;;;;;;11.65;8.03;;;;;;;8.84;83.88;100494.41;1723417;82;21612;-68
2021/04/23 03:09:15;;;;;;;11.28;7.50;;;;;;;8.75;81.99;100500.41;1727984;82;21938;-69
2021/04/23 03:11:43;;;;;;;11.65;7.47;;;;;;;8.64;81.15;100506.92;1724628;82;21082;-69
2021/04/23 03:14:12;;;;;;;9.35;6.83;;;;;;;8.56;80.53;100511.34;1725503;82;21201;-69
2021/04/23 03:16:42;;;;;;;10.03;6.92;;;;;;;8.49;79.62;100519.20;1727282;82;21225;-69
2021/04/23 03:19:16;;;;;;;9.50;6.05;;;;;;;8.41;79.23;100538.53;1727389;82;21525;-70
2021/04/23 03:21:44;;;;;;;9.95;6.35;;;;;;;8.32;77.91;100530.64;1729109;82;21261;-69
2021/04/23 03:24:12;;;;;;;9.65;6.35;;;;;;;8.21;76.59;100538.98;1719752;82;21098;-70
2021/04/23 03:26:41;;;;;;;10.45;6.40;;;;;;;8.09;75.94;100534.25;1708085;81;21200;-69
2021/04/23 03:29:11;;;;;;;9.00;6.35;;;;;;;8.00;75.06;100539.71;1727017;82;21136;-69
2021/04/23 03:31:39;;;;;;;9.73;6.08;;;;;;;7.90;74.36;100554.97;1731085;82;21619;-69
2021/04/23 03:34:07;;;;;;;9.03;5.62;;;;;;;7.83;74.01;100553.48;1734340;82;22179;-70
2021/04/23 03:36:34;;;;;;;11.10;5.90;;;;;;;7.72;73.64;100554.63;1726627;82;21185;-70
2021/04/23 03:39:05;;;;;;;10.15;6.00;;;;;;;7.65;73.17;100571.25;1721058;81;21640;-70
2021/04/23 03:41:34;;;;;;;8.48;5.33;;;;;;;7.58;73.14;100573.25;1716700;82;21133;-70
2021/04/23 03:44:03;;;;;;;8.18;5.95;;;;;;;7.51;73.25;100565.94;1717603;82;21187;-69
2021/04/23 03:46:31;;;;;;;9.88;6.40;;;;;;;7.47;73.26;100582.08;1728170;82;21272;-69
2021/04/23 03:49:00;;;;;;;10.18;6.25;;;;;;;7.43;73.09;100585.70;1723723;82;21145;-69
2021/04/23 03:51:28;;;;;;;9.23;6.12;;;;;;;7.37;73.01;100573.38;1728957;82;21165;-69
2021/04/23 03:53:56;;;;;;;8.80;6.30;;;;;;;7.30;73.46;100588.61;1717328;82;21200;-69
2021/04/23 03:56:25;;;;;;;10.72;7.35;;;;;;;7.22;74.22;100580.49;1727054;82;21152;-69
2021/04/23 03:58:54;;;;;;;8.63;6.22;;;;;;;7.14;74.79;100586.18;1742242;80;21198;-69
2021/04/23 04:01:24;;;;;;;9.95;6.60;;;;;;;7.04;75.50;100586.77;1742649;81;21175;-69
2021/04/23 04:03:53;;;;;;;10.98;6.78;;;;;;;6.95;76.30;100609.92;1724899;82;21238;-69
2021/04/23 04:06:25;;;;;;;8.13;5.60;;;;;;;6.86;76.73;100611.30;1747961;81;21165;-70
2021/04/23 04:08:53;;;;;;;9.23;5.80;;;;;;;6.73;77.38;100601.19;1727463;82;21172;-69
2021/04/23 04:11:23;;;;;;;9.23;5.80;;;;;;;6.61;77.86;100610.17;1718013;82;21408;-68
2021/04/23 04:13:52;;;;;;;8.93;5.87;;;;;;;6.51;78.49;100610.73;1729455;82;21165;-69
2021/04/23 04:16:20;;;;;;;10.32;5.70;;;;;;;6.43;79.04;100609.76;1710836;82;21133;-70
2021/04/23 04:18:49;;;;;;;10.65;5.80;;;;;;;6.36;79.53;100608.53;1722478;81;21569;-70
2021/04/23 04:21:18;;;;;;;8.63;5.67;;;;;;;6.30;79.87;100612.09;1719847;82;21149;-70
2021/04/23 04:23:46;;;;;;;10.23;5.47;;;;;;;6.24;80.16;100613.80;1721968;82;22270;-69
2021/04/23 04:26:14;;;;;;;9.33;5.87;;;;;;;6.14;80.27;100616.72;1719929;82;21949;-69
2021/04/23 04:28:42;;;;;;;9.25;5.50;;;;;;;6.04;80.60;100625.21;1733684;81;21149;-69
2021/04/23 04:31:11;;;;;;;10.60;5.87;;;;;;;5.96;80.84;100625.02;1722876;82;21215;-69
2021/04/23 04:33:41;;;;;;;10.38;6.08;;;;;;;5.93;81.21;100624.66;1728031;82;21190;-69
2021/04/23 04:36:10;;;;;;;8.83;5.28;;;;;;;5.89;81.49;100620.30;1721204;82;21285;-69
2021/04/23 04:38:39;;;;;;;9.88;5.50;;;;;;;5.88;81.73;100625.28;1725778;81;21176;-69
2021/04/23 04:41:07;;;;;;;10.03;6.15;;;;;;;5.85;81.91;100637.66;1725845;82;21185;-69
2021/04/23 04:43:36;;;;;;;7.90;5.72;;;;;;;5.83;82.18;100638.42;1731651;82;21086;-67
2021/04/23 04:46:04;;;;;;;9.33;5.70;;;;;;;5.81;82.30;100633.33;1720193;82;21613;-68
2021/04/23 04:48:33;;;;;;;10.35;6.72;;;;;;;5.79;82.47;100630.11;1732579;81;21500;-69
2021/04/23 04:51:02;;;;;;;12.47;6.58;;;;;;;5.78;82.71;100631.12;1723926;82;21288;-70
2021/04/23 04:53:30;;;;;;;8.53;5.80;;;;;;;5.79;82.94;100628.78;1720642;82;21137;-69
2021/04/23 04:55:59;;;;;;;9.85;5.65;;;;;;;5.81;83.19;100649.75;1725431;81;21624;-70
2021/04/23 04:58:31;;;;;;;8.70;5.78;;;;;;;5.80;83.25;100636.21;1730231;82;21604;-70
2021/04/23 05:01:00;;;;;;;8.23;6.05;;;;;;;5.79;83.36;100643.36;1725076;82;22055;-70
2021/04/23 05:03:28;;;;;;;10.75;6.12;;;;;;;5.78;83.59;100644.89;1719430;82;21659;-70
2021/04/23 05:05:56;;;;;;;8.15;5.87;;;;;;;5.75;83.85;100642.69;1724200;82;21668;-70
2021/04/23 05:08:24;;;;;;;10.03;6.37;;;;;;;5.76;84.02;100645.62;1732391;82;21201;-70
2021/04/23 05:10:53;;;;;;;11.10;5.90;;;;;;;5.76;84.17;100652.24;1727578;81;21209;-69
2021/04/23 05:13:21;;;;;;;10.25;6.10;;;;;;;5.76;84.32;100645.62;1718059;82;22194;-69
2021/04/23 05:15:49;;;;;;;9.78;5.65;;;;;;;5.79;84.57;100650.47;1710980;82;21842;-69
2021/04/23 05:18:17;;;;;;;8.43;6.00;;;;;;;5.82;84.75;100656.17;1722573;82;21126;-69
2021/04/23 05:20:46;;;;;;;11.35;6.62;;;;;;;5.86;84.93;100657.34;1723700;81;21651;-69
2021/04/23 05:23:15;;;;;;;12.33;7.10;;;;;;;5.93;85.07;100651.17;1725518;81;21700;-70
2021/04/23 05:25:43;;;;;;;9.70;6.50;;;;;;;5.99;85.31;100661.69;1732917;82;22125;-70
2021/04/23 05:28:11;;;;;;;9.50;5.90;;;;;;;6.09;85.38;100663.81;1735784;82;21208;-70
2021/04/23 05:30:39;;;;;;;9.88;5.90;;;;;;;6.18;85.32;100667.74;1727112;81;21157;-70
2021/04/23 05:33:08;;;;;;;10.08;6.15;;;;;;;6.25;85.38;100661.86;1720321;82;21070;-70
2021/04/23 05:35:39;;;;;;;10.60;5.72;;;;;;;6.36;85.46;100664.25;1719449;82;21161;-71
2021/04/23 05:38:07;;;;;;;9.00;5.92;;;;;;;6.48;85.40;100665.09;1720996;82;22288;-70
2021/04/23 05:40:39;;;;;;;8.78;6.10;;;;;;;6.57;84.95;100658.92;1720426;82;21172;-69
2021/04/23 05:43:07;;;;;;;8.15;5.85;;;;;;;6.62;84.84;100663.05;1717743;82;21245;-70
2021/04/23 05:45:37;;;;;;;7.78;5.05;;;;;;;6.67;84.67;100663.67;1719874;82;21237;-69
2021/04/23 05:48:09;;;;;;;9.70;5.42;;;;;;;6.72;84.25;100658.50;1723497;81;21253;-70
2021/04/23 05:50:38;;;;;;;8.13;5.30;;;;;;;6.79;84.05;100656.55;1724057;82;21201;-69
2021/04/23 05:53:06;;;;;;;8.08;5.58;;;;;;;6.87;83.96;100655.39;1739569;81;21628;-69
2021/04/23 05:55:35;;;;;;;9.13;4.85;;;;;;;7.00;84.00;100656.49;1742429;81;21170;-70
2021/04/23 05:58:04;;;;;;;7.72;4.92;;;;;;;7.12;83.09;100660.49;1751381;81;21628;-68
2021/04/23 06:00:34;;;;;;;8.25;5.10;;;;;;;7.18;82.60;100661.70;1742121;80;21354;-69
2021/04/23 06:03:04;;;;;;;8.18;4.92;;;;;;;7.23;81.83;100659.14;1740671;81;21530;-70
2021/04/23 06:05:33;;;;;;;8.95;4.78;;;;;;;7.26;81.24;100654.70;1734545;81;21591;-69
2021/04/23 06:08:05;;;;;;;8.85;4.62;;;;;;;7.32;80.83;100656.95;1738873;81;21608;-68
2021/04/23 06:10:33;;;;;;;9.10;5.37;;;;;;;7.40;80.65;100665.88;1740606;80;21186;-68
2021/04/23 06:13:01;;;;;;;8.48;5.37;;;;;;;7.45;79.87;100673.17;1739026;81;21190;-69
2021/04/23 06:15:30;;;;;;;8.55;5.72;;;;;;;7.48;79.18;100678.83;1708080;83;21221;-69
2021/04/23 06:17:58;;;;;;;12.60;8.90;;;;;;;7.48;78.82;100679.36;1736747;81;21235;-68
2021/04/23 06:20:30;;;;;;;15.18;10.50;;;;;;;7.54;78.36;100676.30;1722036;81;21107;-69
2021/04/23 06:22:58;;;;;;;14.20;10.15;;;;;;;7.55;77.79;100667.27;1740083;80;21254;-69
2021/04/23 06:25:26;;;;;;;14.83;10.90;;;;;;;7.54;77.42;100680.28;1741754;80;21617;-69
2021/04/23 06:27:55;;;;;;;16.02;10.25;;;;;;;7.59;77.19;100681.17;1737870;81;21642;-71
2021/04/23 06:30:27;;;;;;;12.43;9.38;;;;;;;7.68;77.13;100680.30;1715681;82;21225;-69
2021/04/23 06:33:06;;;;;;;10.30;6.40;;;;;;;7.83;76.78;100683.78;1737534;80;22435;-69
2021/04/23 06:35:32;;;;;;;9.88;5.42;;;;;;;7.94;76.15;100689.60;1728039;81;21163;-70
2021/04/23 06:38:01;;;;;;;7.62;5.60;;;;;;;8.06;75.79;100686.89;1737160;81;21238;-70
2021/04/23 06:40:29;;;;;;;8.30;5.35;;;;;;;8.17;75.30;100684.20;1733839;81;21225;-69
2021/04/23 06:42:57;;;;;;;12.80;6.35;;;;;;;8.32;74.80;100681.00;1741240;80;21241;-69
2021/04/23 06:45:25;;;;;;;8.35;5.22;;;;;;;8.44;74.26;100679.12;1742255;81;21190;-70
2021/04/23 06:47:54;;;;;;;8.03;4.65;;;;;;;8.60;73.76;100688.72;1744459;81;21262;-70
2021/04/23 06:50:22;;;;;;;8.40;4.47;;;;;;;8.67;72.89;100687.50;1737968;81;21197;-70
2021/04/23 06:52:53;;;;;;;6.95;4.67;;;;;;;8.76;72.86;100694.58;1741395;80;21502;-70
2021/04/23 06:55:22;;;;;;;11.15;7.10;;;;;;;8.83;72.46;100692.56;1745951;81;21250;-70
2021/04/23 06:57:51;;;;;;;12.73;7.08;;;;;;;8.86;71.88;100687.28;1752332;81;21149;-71
2021/04/23 07:00:26;;;;;;;13.10;7.40;;;;;;;8.92;71.55;100690.31;1724481;81;21154;-71
2021/04/23 07:02:56;;;;;;;7.97;5.37;;;;;;;8.90;70.21;100685.74;1721585;81;21192;-68
2021/04/23 07:05:24;;;;;;;7.50;4.97;;;;;;;8.87;70.27;100692.88;1739647;82;21655;-70
2021/04/23 07:07:58;;;;;;;7.97;5.03;;;;;;;8.89;70.18;100693.46;1741662;81;21094;-70
2021/04/23 07:10:28;;;;;;;8.58;4.20;;;;;;;8.91;69.79;100682.82;1739196;80;21210;-70
2021/04/23 07:12:59;;;;;;;6.40;4.20;;;;;;;8.97;69.49;100690.38;1735658;80;21134;-70
2021/04/23 07:15:32;;;;;;;7.45;4.58;;;;;;;8.96;68.45;100680.78;1737685;81;21128;-71
2021/04/23 07:18:02;;;;;;;7.80;4.17;;;;;;;8.97;68.18;100683.72;1740526;81;22030;-69
2021/04/23 07:20:32;;;;;;;7.10;4.23;;;;;;;9.02;67.80;100677.15;1738110;81;21150;-72
2021/04/23 07:23:01;;;;;;;6.78;4.12;;;;;;;9.06;67.22;100679.60;1744097;81;21555;-71
2021/04/23 07:25:29;;;;;;;6.78;4.25;;;;;;;9.10;67.28;100683.38;1740225;81;21128;-69
2021/04/23 07:27:59;;;;;;;9.93;4.22;;;;;;;9.18;67.12;100682.69;1711276;83;22214;-69
2021/04/23 07:30:30;;;;;;;8.23;4.15;;;;;;;9.22;66.54;100687.83;1714900;82;21528;-71
2021/04/23 07:33:01;;;;;;;8.53;4.47;;;;;;;9.25;65.88;100684.68;1737922;81;21240;-70
2021/04/23 07:35:30;;;;;;;6.45;3.85;;;;;;;9.27;65.45;100694.02;1732236;81;21136;-70
2021/04/23 07:38:00;;;;;;;8.90;4.95;;;;;;;9.24;64.28;100695.84;1738807;81;21168;-69
2021/04/23 07:40:34;;;;;;;7.40;4.75;;;;;;;9.23;64.44;100702.23;1732828;81;21100;-70
2021/04/23 07:43:03;;;;;;;12.98;5.22;;;;;;;9.28;64.53;100701.48;1736233;80;21375;-70
2021/04/23 07:45:33;;;;;;;10.00;5.28;;;;;;;9.30;63.98;100708.72;1737633;81;21169;-70
2021/04/23 07:48:06;;;;;;;7.97;4.50;;;;;;;9.30;64.01;100706.86;1742261;81;21589;-69
2021/04/23 07:50:35;;;;;;;8.73;4.80;;;;;;;9.33;63.99;100704.23;1734713;81;21260;-70
2021/04/23 07:53:04;;;;;;;13.90;5.20;;;;;;;9.40;63.69;100703.53;1738585;80;21173;-69
2021/04/23 07:55:33;;;;;;;8.20;4.87;;;;;;;9.48;63.87;100708.99;1733570;81;22449;-70
2021/04/23 07:58:02;;;;;;;7.37;5.00;;;;;;;9.57;64.09;100706.96;1730517;81;21358;-70
2021/04/23 08:00:36;;;;;;;8.20;5.10;;;;;;;9.68;63.37;100696.45;1724641;81;21132;-71
2021/04/23 08:03:05;;;;;;;8.95;5.20;;;;;;;9.82;63.58;100694.49;1737980;80;21548;-71
2021/04/23 08:05:33;;;;;;;10.23;5.42;;;;;;;10.01;63.35;100684.31;1746410;81;21513;-69
2021/04/23 08:08:05;;;;;;;8.05;4.85;;;;;;;10.22;62.66;100688.00;1733790;81;22152;-71
2021/04/23 08:10:35;;;;;;;11.43;6.15;;;;;;;10.40;62.09;100680.72;1741974;80;21198;-71
2021/04/23 08:13:04;;;;;;;8.75;5.12;;;;;;;10.55;62.05;100680.34;1752118;80;21187;-69
2021/04/23 08:15:36;;;;;;;9.83;5.63;;;;;;;10.68;61.21;100678.31;1724961;81;21394;-70
2021/04/23 08:18:06;;;;;;;;;;;;;;;10.71;60.57;100686.62;1740351;81;21792;-70
2021/04/23 08:20:34;;;;;;;7.80;5.17;;;;;;;10.71;59.52;100685.83;1746109;81;21247;-69
2021/04/23 08:23:05;;;;;;;8.30;5.07;;;;;;;10.69;60.06;100686.59;1723032;82;21834;-69
2021/04/23 08:25:35;;;;;;;10.07;5.03;;;;;;;10.68;59.61;100685.00;1724148;82;21383;-70
2021/04/23 08:28:04;;;;;;;7.63;5.43;;;;;;;10.64;59.15;100682.03;1729102;82;21318;-70
2021/04/23 08:30:33;;;;;;;8.67;5.27;;;;;;;10.61;59.05;100683.07;1734386;82;21245;-69
2021/04/23 08:33:05;;;;;;;11.57;6.22;;;;;;;10.56;58.95;100686.48;1717884;82;21307;-70
2021/04/23 08:35:34;;;;;;;8.23;5.30;;;;;;;10.53;59.08;100687.81;1725770;81;21200;-69
2021/04/23 08:38:04;;;;;;;8.13;5.17;;;;;;;10.57;59.15;100688.11;1726255;82;21349;-69
2021/04/23 08:40:33;;;;;;;10.47;5.73;;;;;;;10.62;58.73;100687.34;1714615;82;21267;-70
2021/04/23 08:43:01;;;;;;;8.30;5.53;;;;;;;10.61;58.89;100696.42;1714363;82;21401;-70
2021/04/23 08:45:32;;;;;;;9.43;5.60;;;;;;;10.59;58.54;100695.86;1725694;81;22008;-68
2021/04/23 08:48:01;;;;;;;10.17;6.03;;;;;;;10.53;58.47;100699.84;1721881;82;21313;-69
2021/04/23 08:50:29;;;;;;;11.73;6.05;;;;;;;10.51;58.61;100704.61;1726488;82;22093;-70
2021/04/23 08:52:58;;;;;;;9.43;5.78;;;;;;;10.51;58.44;100709.16;1730018;82;21193;-71
2021/04/23 08:55:27;;;;;;;10.90;6.20;;;;;;;10.58;58.64;100695.59;1723771;82;21185;-70
2021/04/23 08:57:57;;;;;;;11.83;6.33;;;;;;;10.68;57.86;100699.16;1720829;82;21649;-70
2021/04/23 09:00:25;;;;;;;9.23;6.20;;;;;;;10.78;58.02;100703.78;1722377;82;21435;-69
2021/04/23 09:02:54;;;;;;;9.33;5.70;;;;;;;10.90;57.72;100700.41;1730309;82;21743;-69
2021/04/23 09:05:22;;;;;;;11.83;6.57;;;;;;;10.97;56.95;100705.01;1717562;82;22045;-69
2021/04/23 09:08:06;;;;;;;8.67;5.90;;;;;;;11.01;57.08;100698.62;1723000;82;21366;-70
2021/04/23 09:10:38;;;;;;;10.93;7.07;;;;;;;11.13;57.21;100693.91;1715804;82;21470;-70
2021/04/23 09:13:12;;;;;;;11.43;6.40;;;;;;;11.35;57.14;100692.95;1725977;82;21378;-69
2021/04/23 09:15:43;;;;;;;10.07;6.43;;;;;;;11.48;55.69;100691.16;1729401;82;21197;-69
2021/04/23 09:18:21;;;;;;;7.47;5.33;;;;;;;11.40;55.10;100696.47;1719027;82;21774;-69
2021/04/23 09:20:51;;;;;;;7.93;5.50;;;;;;;11.26;55.29;100696.66;1721680;82;21906;-69
2021/04/23 09:23:22;;;;;;;11.83;6.00;;;;;;;11.27;55.67;100691.58;1706129;82;21886;-69
2021/04/23 09:25:54;;;;;;;7.53;5.42;;;;;;;11.42;56.13;100693.55;1729269;82;21891;-70
2021/04/23 09:28:38;;;;;;;10.97;5.70;;;;;;;11.64;55.96;100694.72;1729240;82;22181;-70
2021/04/23 09:31:33;;;;;;;13.53;5.70;;;;;;;11.79;55.69;100688.65;1725864;82;21868;-70
2021/04/23 09:34:06;;;;;;;8.90;4.90;;;;;;;11.93;55.67;100679.88;1717032;82;21619;-70
2021/04/23 09:36:39;;;;;;;9.30;5.00;;;;;;;12.20;54.71;100686.92;1727031;82;21472;-69
2021/04/23 09:39:11;;;;;;;9.27;5.47;;;;;;;12.26;52.42;100688.55;1717347;82;21479;-70
2021/04/23 09:41:49;;;;;;;8.67;5.00;;;;;;;12.20;52.69;100688.26;1733989;82;21363;-69
2021/04/23 09:44:32;;;;;;;8.70;5.47;;;;;;;12.19;51.13;100693.35;1693014;83;21429;-69
2021/04/23 09:47:20;;;;;;;8.43;5.03;;;;;;;12.19;52.01;100696.03;1746846;80;21537;-69
2021/04/23 09:49:56;;;;;;;9.93;5.27;;;;;;;12.28;51.70;100697.67;1746497;81;22281;-69
2021/04/23 09:52:26;;;;;;;10.53;5.50;;;;;;;12.33;50.48;100689.09;1738091;81;21847;-69
2021/04/23 09:55:03;;;;;;;9.43;4.97;;;;;;;12.32;50.84;100688.83;1753817;80;21360;-70
2021/04/23 10:00:14;;;;;;;9.17;4.90;;;;;;;12.57;50.27;100678.69;1840673;76;23564;-68
2021/04/23 10:02:48;;;;;;;8.20;5.30;;;;;;;12.53;48.81;100683.50;1835440;77;21188;-68
2021/04/23 10:05:41;;;;;;;8.00;4.60;;;;;;;12.48;49.27;100682.97;1829712;76;21345;-69
2021/04/23 10:08:12;;;;;;;9.10;4.87;;;;;;;12.52;49.09;100676.00;1827295;76;21435;-70
2021/04/23 10:10:52;;;;;;;6.80;4.60;;;;;;;12.59;49.38;100663.67;1816893;76;21744;-68
2021/04/23 10:13:31;;;;;;;6.47;4.03;;;;;;;12.77;49.10;100656.45;1821204;76;21390;-69
2021/04/23 10:15:59;;;;;;;8.10;4.77;;;;;;;12.93;48.76;100660.44;1813874;77;21426;-69
2021/04/23 10:18:28;;;;;;;7.33;4.13;;;;;;;13.06;47.95;100654.02;1826904;77;21471;-68
2021/04/23 10:20:56;;;;;;;8.13;4.37;;;;;;;13.18;46.49;100657.73;1814637;77;21276;-68
2021/04/23 10:23:25;;;;;;;9.13;4.60;;;;;;;13.24;45.71;100653.16;1820761;77;21886;-69
2021/04/23 10:25:53;;;;;;;6.70;4.13;;;;;;;13.30;45.54;100662.30;1819422;76;21631;-69
2021/04/23 10:28:24;;;;;;;8.23;4.20;;;;;;;13.34;44.61;100653.16;1811615;76;21407;-69
2021/04/23 10:30:54;;;;;;;8.47;4.40;;;;;;;13.33;45.26;100653.70;1819032;76;21954;-70
2021/04/23 10:33:24;;;;;;;7.27;4.00;;;;;;;13.17;45.83;100645.41;1811001;77;21527;-69
2021/04/23 10:35:55;;;;;;;8.27;4.90;;;;;;;13.17;45.83;100645.41;1820719;76;22021;-70
2021/04/23 10:38:27;;;;;;;8.73;5.03;;;;;;;13.10;45.43;100650.25;1820523;76;22251;-69
2021/04/23 10:41:05;;;;;;;7.00;3.80;;;;;;;13.01;46.02;100644.63;1803691;76;21215;-69
2021/04/23 10:43:35;;;;;;;7.67;4.17;;;;;;;13.02;46.30;100640.06;1823956;77;22041;-69
2021/04/23 10:46:09;;;;;;;9.00;4.40;;;;;;;13.18;45.91;100648.88;1823697;77;21599;-70
2021/04/23 10:48:42;;;;;;;9.43;4.00;;;;;;;13.37;45.23;100640.55;1818320;77;21987;-69
2021/04/23 10:51:25;;;;;;;5.93;3.50;;;;;;;13.56;44.84;100642.09;1808926;77;21476;-71
2021/04/23 10:53:56;;;;;;;6.13;3.53;;;;;;;13.60;43.51;100639.12;1813163;78;21554;-70
2021/04/23 10:56:30;;;;;;;7.27;3.87;;;;;;;13.53;43.75;100635.94;1828043;76;21670;-70
2021/04/23 10:59:01;;;;;;;5.87;3.90;;;;;;;13.59;42.00;100636.19;1823116;78;21688;-68
2021/04/23 11:01:38;;;;;;;5.83;3.45;;;;;;;13.66;41.96;100631.86;1831028;77;21670;-68
2021/04/23 11:04:17;;;;;;;5.27;3.40;;;;;;;13.70;41.95;100637.73;1826481;77;21669;-71
2021/04/23 11:07:03;;;;;;;5.00;3.03;;;;;;;14.10;40.49;100633.22;1810750;76;21669;-70
2021/04/23 11:09:32;;;;;;;7.33;3.27;;;;;;;14.24;39.10;100636.08;1812956;78;22555;-69
2021/04/23 11:12:13;;;;;;;6.43;3.03;;;;;;;14.24;39.10;100636.08;1829929;78;21994;-70
2021/04/23 11:14:43;;;;;;;5.53;3.00;;;;;;;14.46;38.69;100619.53;1811149;76;22244;-70
2021/04/23 11:17:21;;;;;;;6.00;3.07;;;;;;;14.61;37.84;100622.66;1825882;76;21869;-68
2021/04/23 11:19:51;;;;;;;5.97;3.17;;;;;;;14.51;38.43;100616.30;1824338;78;22420;-70
2021/04/23 11:22:25;;;;;;;6.17;2.37;;;;;;;14.51;38.72;100622.20;1828080;76;21868;-69
2021/04/23 11:25:07;;;;;;;7.33;3.60;;;;;;;14.53;38.42;100619.49;1812431;76;21962;-68
2021/04/23 11:27:35;;;;;;;7.10;3.25;;;;;;;14.52;39.31;100621.14;1812814;77;21844;-69
2021/04/23 11:30:08;;;;;;;6.13;3.10;;;;;;;14.60;38.60;100621.86;1793607;78;21670;-69
2021/04/23 11:32:36;;;;;;;5.93;2.60;;;;;;;14.63;38.87;100619.95;1830670;78;21869;-69
2021/04/23 11:35:12;;;;;;;6.80;2.80;;;;;;;14.61;38.13;100618.11;1807093;76;22247;-69
2021/04/23 11:37:46;;;;;;;5.40;2.83;;;;;;;14.51;38.25;100616.82;1819141;77;22333;-70
2021/04/23 11:40:19;;;;;;;6.50;2.70;;;;;;;14.33;37.95;100615.60;1839120;76;21845;-71
2021/04/23 11:42:53;;;;;;;4.17;2.63;;;;;;;14.15;38.40;100610.37;1826847;76;22373;-71
2021/04/23 11:45:27;;;;;;;5.60;2.53;;;;;;;13.92;38.39;100606.48;1824210;78;21817;-69